sensor_id;sensor_type;location;lat;lon;timestamp;temperature;humidity
79049;DHT22;68680;50.764;6.120;2023-10-08T11:45:34;21.60;85.50
79049;DHT22;68680;50.764;6.120;2023-10-08T11:48:00;21.50;85.40
79049;DHT22;68680;50.764;6.120;2023-10-08T11:50:26;21.50;82.50
79049;DHT22;68680;50.764;6.120;2023-10-08T11:52:52;21.40;83.60
79049;DHT22;68680;50.764;6.120;2023-10-08T11:55:17;21.50;84.00
79049;DHT22;68680;50.764;6.120;2023-10-08T11:57:43;21.50;85.80
79049;DHT22;68680;50.764;6.120;2023-10-08T12:00:10;21.50;84.80
79049;DHT22;68680;50.764;6.120;2023-10-08T12:02:38;21.60;83.90
79049;DHT22;68680;50.764;6.120;2023-10-08T12:05:05;21.80;82.50
79049;DHT22;68680;50.764;6.120;2023-10-08T12:07:31;21.80;83.30
79049;DHT22;68680;50.764;6.120;2023-10-08T12:09:56;21.50;81.80
79049;DHT22;68680;50.764;6.120;2023-10-08T12:12:22;21.50;82.70
79049;DHT22;68680;50.764;6.120;2023-10-08T12:14:48;21.40;82.40
79049;DHT22;68680;50.764;6.120;2023-10-08T12:17:14;21.40;83.20
79049;DHT22;68680;50.764;6.120;2023-10-08T12:19:41;21.60;83.10
79049;DHT22;68680;50.764;6.120;2023-10-08T12:22:07;21.70;82.30
79049;DHT22;68680;50.764;6.120;2023-10-08T12:24:32;21.70;81.20
79049;DHT22;68680;50.764;6.120;2023-10-08T12:26:58;21.60;82.00
79049;DHT22;68680;50.764;6.120;2023-10-08T12:29:24;21.80;83.20
79049;DHT22;68680;50.764;6.120;2023-10-08T12:31:50;22.00;81.70
79049;DHT22;68680;50.764;6.120;2023-10-08T12:34:15;22.10;81.00
79049;DHT22;68680;50.764;6.120;2023-10-08T12:36:42;22.00;80.90
79049;DHT22;68680;50.764;6.120;2023-10-08T12:39:08;22.00;80.90
79049;DHT22;68680;50.764;6.120;2023-10-08T12:41:34;22.10;81.70
79049;DHT22;68680;50.764;6.120;2023-10-08T12:44:00;22.30;80.40
79049;DHT22;68680;50.764;6.120;2023-10-08T12:46:25;22.20;80.20
79049;DHT22;68680;50.764;6.120;2023-10-08T12:48:52;22.20;78.60
79049;DHT22;68680;50.764;6.120;2023-10-08T12:51:18;22.30;79.40
79049;DHT22;68680;50.764;6.120;2023-10-08T12:53:46;22.40;79.80
79049;DHT22;68680;50.764;6.120;2023-10-08T12:56:12;22.50;78.20
79049;DHT22;68680;50.764;6.120;2023-10-08T12:58:37;22.50;78.20
79049;DHT22;68680;50.764;6.120;2023-10-08T13:01:03;22.50;77.10
79049;DHT22;68680;50.764;6.120;2023-10-08T13:03:29;22.50;77.40
79049;DHT22;68680;50.764;6.120;2023-10-08T13:05:55;22.50;76.40
79049;DHT22;68680;50.764;6.120;2023-10-08T13:08:21;22.70;74.90
79049;DHT22;68680;50.764;6.120;2023-10-08T13:10:48;22.70;76.20
79049;DHT22;68680;50.764;6.120;2023-10-08T13:13:14;22.60;76.20
79049;DHT22;68680;50.764;6.120;2023-10-08T13:15:40;22.70;77.00
79049;DHT22;68680;50.764;6.120;2023-10-08T13:18:06;22.50;78.40
79049;DHT22;68680;50.764;6.120;2023-10-08T13:20:32;22.50;78.30
79049;DHT22;68680;50.764;6.120;2023-10-08T13:22:58;22.50;79.10
79049;DHT22;68680;50.764;6.120;2023-10-08T13:25:24;22.70;78.30
79049;DHT22;68680;50.764;6.120;2023-10-08T13:27:51;22.90;77.50
79049;DHT22;68680;50.764;6.120;2023-10-08T13:30:17;23.10;76.30
79049;DHT22;68680;50.764;6.120;2023-10-08T13:32:43;23.10;77.60
79049;DHT22;68680;50.764;6.120;2023-10-08T13:35:09;23.30;75.40
79049;DHT22;68680;50.764;6.120;2023-10-08T13:37:35;23.70;75.10
79049;DHT22;68680;50.764;6.120;2023-10-08T13:40:01;24.70;71.10
79049;DHT22;68680;50.764;6.120;2023-10-08T13:42:27;26.50;65.70
79049;DHT22;68680;50.764;6.120;2023-10-08T13:44:54;27.10;63.20
79049;DHT22;68680;50.764;6.120;2023-10-08T13:47:20;26.60;63.90
79049;DHT22;68680;50.764;6.120;2023-10-08T13:49:46;26.10;64.90
79049;DHT22;68680;50.764;6.120;2023-10-08T13:52:11;25.40;65.20
79049;DHT22;68680;50.764;6.120;2023-10-08T13:54:37;25.40;66.30
79049;DHT22;68680;50.764;6.120;2023-10-08T13:57:03;25.80;64.30
79049;DHT22;68680;50.764;6.120;2023-10-08T13:59:29;25.90;63.90
79049;DHT22;68680;50.764;6.120;2023-10-08T14:01:56;25.80;65.30
79049;DHT22;68680;50.764;6.120;2023-10-08T14:04:22;25.80;64.60
79049;DHT22;68680;50.764;6.120;2023-10-08T14:06:48;26.60;62.90
79049;DHT22;68680;50.764;6.120;2023-10-08T14:09:14;27.40;62.00
79049;DHT22;68680;50.764;6.120;2023-10-08T14:11:40;28.10;58.80
79049;DHT22;68680;50.764;6.120;2023-10-08T14:14:05;28.40;58.20
79049;DHT22;68680;50.764;6.120;2023-10-08T14:16:31;27.80;58.40
79049;DHT22;68680;50.764;6.120;2023-10-08T14:18:58;27.00;59.70
79049;DHT22;68680;50.764;6.120;2023-10-08T14:21:24;26.40;61.90
79049;DHT22;68680;50.764;6.120;2023-10-08T14:23:50;25.90;63.40
79049;DHT22;68680;50.764;6.120;2023-10-08T14:26:16;25.40;63.70
79049;DHT22;68680;50.764;6.120;2023-10-08T14:28:42;25.00;66.20
79049;DHT22;68680;50.764;6.120;2023-10-08T14:31:08;24.80;65.80
79049;DHT22;68680;50.764;6.120;2023-10-08T14:33:34;24.50;66.30
79049;DHT22;68680;50.764;6.120;2023-10-08T14:36:01;24.20;66.90
79049;DHT22;68680;50.764;6.120;2023-10-08T14:38:27;24.00;68.00
79049;DHT22;68680;50.764;6.120;2023-10-08T14:40:53;23.80;68.50
79049;DHT22;68680;50.764;6.120;2023-10-08T14:43:19;23.60;69.60
79049;DHT22;68680;50.764;6.120;2023-10-08T14:45:45;23.40;70.00
79049;DHT22;68680;50.764;6.120;2023-10-08T14:48:11;23.20;70.60
79049;DHT22;68680;50.764;6.120;2023-10-08T14:50:37;23.00;70.00
79049;DHT22;68680;50.764;6.120;2023-10-08T14:53:04;22.80;72.30
79049;DHT22;68680;50.764;6.120;2023-10-08T14:55:30;22.70;73.10
79049;DHT22;68680;50.764;6.120;2023-10-08T14:57:56;22.60;72.30
79049;DHT22;68680;50.764;6.120;2023-10-08T15:00:22;22.60;72.90
79049;DHT22;68680;50.764;6.120;2023-10-08T15:02:48;22.50;73.60
79049;DHT22;68680;50.764;6.120;2023-10-08T15:05:14;22.50;74.80
79049;DHT22;68680;50.764;6.120;2023-10-08T15:07:40;22.60;73.90
79049;DHT22;68680;50.764;6.120;2023-10-08T15:10:08;22.50;74.20
79049;DHT22;68680;50.764;6.120;2023-10-08T15:12:33;22.40;74.40
79049;DHT22;68680;50.764;6.120;2023-10-08T15:14:59;22.40;75.40
79049;DHT22;68680;50.764;6.120;2023-10-08T15:17:25;22.30;74.00
79049;DHT22;68680;50.764;6.120;2023-10-08T15:19:51;22.30;74.80
79049;DHT22;68680;50.764;6.120;2023-10-08T15:22:16;22.30;74.50
79049;DHT22;68680;50.764;6.120;2023-10-08T15:24:42;22.20;75.40
79049;DHT22;68680;50.764;6.120;2023-10-08T15:27:09;22.10;75.60
79049;DHT22;68680;50.764;6.120;2023-10-08T15:29:35;22.10;76.30
79049;DHT22;68680;50.764;6.120;2023-10-08T15:32:01;22.10;76.50
79049;DHT22;68680;50.764;6.120;2023-10-08T15:34:27;22.00;76.90
79049;DHT22;68680;50.764;6.120;2023-10-08T15:36:53;21.90;76.80
79049;DHT22;68680;50.764;6.120;2023-10-08T15:39:18;21.90;77.50
79049;DHT22;68680;50.764;6.120;2023-10-08T15:41:44;21.80;78.10
79049;DHT22;68680;50.764;6.120;2023-10-08T15:44:11;21.70;78.40
79049;DHT22;68680;50.764;6.120;2023-10-08T15:46:37;21.60;78.50
79049;DHT22;68680;50.764;6.120;2023-10-08T15:49:03;21.60;78.90
79049;DHT22;68680;50.764;6.120;2023-10-08T15:51:29;21.50;79.50
79049;DHT22;68680;50.764;6.120;2023-10-08T15:53:55;21.50;79.60
79049;DHT22;68680;50.764;6.120;2023-10-08T15:56:21;21.50;79.60
79049;DHT22;68680;50.764;6.120;2023-10-08T15:58:46;21.40;80.50
79049;DHT22;68680;50.764;6.120;2023-10-08T16:01:13;21.40;80.80
79049;DHT22;68680;50.764;6.120;2023-10-08T16:03:39;21.30;80.50
79049;DHT22;68680;50.764;6.120;2023-10-08T16:06:05;21.30;80.60
79049;DHT22;68680;50.764;6.120;2023-10-08T16:08:31;21.20;80.00
79049;DHT22;68680;50.764;6.120;2023-10-08T16:10:57;21.20;81.10
79049;DHT22;68680;50.764;6.120;2023-10-08T16:13:22;21.10;81.10
79049;DHT22;68680;50.764;6.120;2023-10-08T16:15:48;21.00;81.80
79049;DHT22;68680;50.764;6.120;2023-10-08T16:18:15;21.00;82.00
79049;DHT22;68680;50.764;6.120;2023-10-08T16:20:41;20.90;82.50
79049;DHT22;68680;50.764;6.120;2023-10-08T16:23:07;20.80;82.80
79049;DHT22;68680;50.764;6.120;2023-10-08T16:25:33;20.80;83.10
79049;DHT22;68680;50.764;6.120;2023-10-08T16:27:58;20.70;83.60
79049;DHT22;68680;50.764;6.120;2023-10-08T16:30:25;20.60;84.60
79049;DHT22;68680;50.764;6.120;2023-10-08T16:32:51;20.60;85.50
79049;DHT22;68680;50.764;6.120;2023-10-08T16:35:19;20.40;85.50
79049;DHT22;68680;50.764;6.120;2023-10-08T16:37:45;20.40;85.00
79049;DHT22;68680;50.764;6.120;2023-10-08T16:40:11;20.30;85.40
79049;DHT22;68680;50.764;6.120;2023-10-08T16:42:37;20.20;85.80
79049;DHT22;68680;50.764;6.120;2023-10-08T16:45:04;20.10;86.70
79049;DHT22;68680;50.764;6.120;2023-10-08T16:47:30;20.10;88.40
79049;DHT22;68680;50.764;6.120;2023-10-08T16:49:56;20.00;89.10
79049;DHT22;68680;50.764;6.120;2023-10-08T16:52:23;19.90;90.30
79049;DHT22;68680;50.764;6.120;2023-10-08T16:54:49;19.80;90.70
79049;DHT22;68680;50.764;6.120;2023-10-08T16:57:15;19.70;91.10
79049;DHT22;68680;50.764;6.120;2023-10-08T16:59:41;19.60;91.60
79049;DHT22;68680;50.764;6.120;2023-10-08T17:02:06;19.50;92.00
79049;DHT22;68680;50.764;6.120;2023-10-08T17:04:32;19.40;92.40
79049;DHT22;68680;50.764;6.120;2023-10-08T17:06:58;19.30;93.20
79049;DHT22;68680;50.764;6.120;2023-10-08T17:09:25;19.10;94.10
79049;DHT22;68680;50.764;6.120;2023-10-08T17:11:51;19.00;95.20
79049;DHT22;68680;50.764;6.120;2023-10-08T17:14:16;18.80;96.30
79049;DHT22;68680;50.764;6.120;2023-10-08T17:16:42;18.60;97.20
79049;DHT22;68680;50.764;6.120;2023-10-08T17:19:08;18.40;98.10
79049;DHT22;68680;50.764;6.120;2023-10-08T17:21:35;18.30;99.00
79049;DHT22;68680;50.764;6.120;2023-10-08T17:24:01;18.20;99.70
79049;DHT22;68680;50.764;6.120;2023-10-08T17:26:28;18.10;99.90
79049;DHT22;68680;50.764;6.120;2023-10-08T17:28:54;18.00;99.90
79049;DHT22;68680;50.764;6.120;2023-10-08T17:31:19;17.90;99.90
79049;DHT22;68680;50.764;6.120;2023-10-08T17:33:45;17.80;99.90
79049;DHT22;68680;50.764;6.120;2023-10-08T17:36:11;17.70;99.90
79049;DHT22;68680;50.764;6.120;2023-10-08T17:38:37;17.60;99.90
79049;DHT22;68680;50.764;6.120;2023-10-08T17:41:02;17.50;99.90
79049;DHT22;68680;50.764;6.120;2023-10-08T17:43:29;17.40;99.90
79049;DHT22;68680;50.764;6.120;2023-10-08T17:45:55;17.30;99.90
79049;DHT22;68680;50.764;6.120;2023-10-08T17:48:21;17.20;99.90
79049;DHT22;68680;50.764;6.120;2023-10-08T17:50:47;17.20;99.90
79049;DHT22;68680;50.764;6.120;2023-10-08T17:53:13;17.10;99.90
79049;DHT22;68680;50.764;6.120;2023-10-08T17:55:38;17.10;99.90
79049;DHT22;68680;50.764;6.120;2023-10-08T17:58:04;17.10;99.90
79049;DHT22;68680;50.764;6.120;2023-10-08T18:00:31;17.10;99.90
79049;DHT22;68680;50.764;6.120;2023-10-08T18:02:57;17.10;99.90
79049;DHT22;68680;50.764;6.120;2023-10-08T18:05:23;17.10;99.90
79049;DHT22;68680;50.764;6.120;2023-10-08T18:07:49;17.00;99.90
79049;DHT22;68680;50.764;6.120;2023-10-08T18:10:15;17.00;99.90
79049;DHT22;68680;50.764;6.120;2023-10-08T18:12:41;16.90;99.90
79049;DHT22;68680;50.764;6.120;2023-10-08T18:15:08;16.90;99.90
79049;DHT22;68680;50.764;6.120;2023-10-08T18:17:35;16.80;99.90
79049;DHT22;68680;50.764;6.120;2023-10-08T18:20:01;16.70;99.90
79049;DHT22;68680;50.764;6.120;2023-10-08T18:22:27;16.70;99.90
79049;DHT22;68680;50.764;6.120;2023-10-08T18:24:53;16.70;99.90
79049;DHT22;68680;50.764;6.120;2023-10-08T18:27:19;16.60;99.90
79049;DHT22;68680;50.764;6.120;2023-10-08T18:29:45;16.60;99.90
79049;DHT22;68680;50.764;6.120;2023-10-08T18:32:10;16.60;99.90
79049;DHT22;68680;50.764;6.120;2023-10-08T18:34:38;16.60;99.90
79049;DHT22;68680;50.764;6.120;2023-10-08T18:37:03;16.60;99.90
79049;DHT22;68680;50.764;6.120;2023-10-08T18:39:29;16.60;99.90
79049;DHT22;68680;50.764;6.120;2023-10-08T18:41:55;16.60;99.90
79049;DHT22;68680;50.764;6.120;2023-10-08T18:44:21;16.60;99.90
79049;DHT22;68680;50.764;6.120;2023-10-08T18:46:46;16.70;99.90
79049;DHT22;68680;50.764;6.120;2023-10-08T18:49:12;16.60;99.90
79049;DHT22;68680;50.764;6.120;2023-10-08T18:51:40;16.70;99.90
79049;DHT22;68680;50.764;6.120;2023-10-08T18:54:06;16.70;99.90
79049;DHT22;68680;50.764;6.120;2023-10-08T18:56:32;16.60;99.90
79049;DHT22;68680;50.764;6.120;2023-10-08T18:58:57;16.60;99.90
79049;DHT22;68680;50.764;6.120;2023-10-08T19:01:23;16.70;99.90
79049;DHT22;68680;50.764;6.120;2023-10-08T19:03:49;16.60;99.90
79049;DHT22;68680;50.764;6.120;2023-10-08T19:06:15;16.60;99.90
79049;DHT22;68680;50.764;6.120;2023-10-08T19:08:42;16.70;99.90
79049;DHT22;68680;50.764;6.120;2023-10-08T19:11:08;16.70;99.90
79049;DHT22;68680;50.764;6.120;2023-10-08T19:13:33;16.60;99.90
79049;DHT22;68680;50.764;6.120;2023-10-08T19:16:00;16.60;99.90
79049;DHT22;68680;50.764;6.120;2023-10-08T19:18:27;16.60;99.90
79049;DHT22;68680;50.764;6.120;2023-10-08T19:20:52;16.60;99.90
79049;DHT22;68680;50.764;6.120;2023-10-08T19:23:18;16.50;99.90
79049;DHT22;68680;50.764;6.120;2023-10-08T19:25:49;16.40;99.90
79049;DHT22;68680;50.764;6.120;2023-10-08T19:28:15;16.50;99.90
79049;DHT22;68680;50.764;6.120;2023-10-08T19:30:41;16.50;99.90
79049;DHT22;68680;50.764;6.120;2023-10-08T19:33:06;16.40;99.90
79049;DHT22;68680;50.764;6.120;2023-10-08T19:35:32;16.40;99.90
79049;DHT22;68680;50.764;6.120;2023-10-08T19:37:58;16.50;99.90
79049;DHT22;68680;50.764;6.120;2023-10-08T19:40:24;16.50;99.90
79049;DHT22;68680;50.764;6.120;2023-10-08T19:42:51;16.50;99.90
79049;DHT22;68680;50.764;6.120;2023-10-08T19:45:17;16.50;99.90
79049;DHT22;68680;50.764;6.120;2023-10-08T19:47:43;16.50;99.90
79049;DHT22;68680;50.764;6.120;2023-10-08T19:50:09;16.50;99.90
79049;DHT22;68680;50.764;6.120;2023-10-08T19:52:35;16.50;99.90
79049;DHT22;68680;50.764;6.120;2023-10-08T19:55:01;16.50;99.90
79049;DHT22;68680;50.764;6.120;2023-10-08T19:57:27;16.50;99.90
79049;DHT22;68680;50.764;6.120;2023-10-08T19:59:54;16.50;99.90
79049;DHT22;68680;50.764;6.120;2023-10-08T20:02:20;16.40;99.90
79049;DHT22;68680;50.764;6.120;2023-10-08T20:04:46;16.40;99.90
79049;DHT22;68680;50.764;6.120;2023-10-08T20:07:12;16.40;99.90
79049;DHT22;68680;50.764;6.120;2023-10-08T20:09:38;16.40;99.90
79049;DHT22;68680;50.764;6.120;2023-10-08T20:12:04;16.40;99.90
79049;DHT22;68680;50.764;6.120;2023-10-08T20:14:30;16.40;99.90
79049;DHT22;68680;50.764;6.120;2023-10-08T20:16:57;16.40;99.90
79049;DHT22;68680;50.764;6.120;2023-10-08T20:19:23;16.40;99.90
79049;DHT22;68680;50.764;6.120;2023-10-08T20:21:48;16.30;99.90
79049;DHT22;68680;50.764;6.120;2023-10-08T20:24:14;16.30;99.90
79049;DHT22;68680;50.764;6.120;2023-10-08T20:26:40;16.30;99.90
79049;DHT22;68680;50.764;6.120;2023-10-08T20:29:06;16.30;99.90
79049;DHT22;68680;50.764;6.120;2023-10-08T20:31:31;16.30;99.90
79049;DHT22;68680;50.764;6.120;2023-10-08T20:33:59;16.20;99.90
79049;DHT22;68680;50.764;6.120;2023-10-08T20:36:24;16.20;99.90
79049;DHT22;68680;50.764;6.120;2023-10-08T20:38:50;16.20;99.90
79049;DHT22;68680;50.764;6.120;2023-10-08T20:41:16;16.20;99.90
79049;DHT22;68680;50.764;6.120;2023-10-08T20:43:42;16.10;99.90
79049;DHT22;68680;50.764;6.120;2023-10-08T20:46:14;16.10;99.90
79049;DHT22;68680;50.764;6.120;2023-10-08T20:48:40;16.10;99.90
79049;DHT22;68680;50.764;6.120;2023-10-08T20:51:09;16.10;99.90
79049;DHT22;68680;50.764;6.120;2023-10-08T20:53:35;16.10;99.90
79049;DHT22;68680;50.764;6.120;2023-10-08T20:56:04;16.10;99.90
79049;DHT22;68680;50.764;6.120;2023-10-08T20:58:31;16.20;99.90
79049;DHT22;68680;50.764;6.120;2023-10-08T21:00:56;16.20;99.90
79049;DHT22;68680;50.764;6.120;2023-10-08T21:03:22;16.30;99.90
79049;DHT22;68680;50.764;6.120;2023-10-08T21:05:48;16.50;99.90
79049;DHT22;68680;50.764;6.120;2023-10-08T21:08:15;16.60;99.90
79049;DHT22;68680;50.764;6.120;2023-10-08T21:10:41;16.70;99.90
79049;DHT22;68680;50.764;6.120;2023-10-08T21:13:06;16.80;99.90
79049;DHT22;68680;50.764;6.120;2023-10-08T21:15:33;16.90;99.90
79049;DHT22;68680;50.764;6.120;2023-10-08T21:17:59;17.00;99.90
79049;DHT22;68680;50.764;6.120;2023-10-08T21:20:25;17.20;99.90
79049;DHT22;68680;50.764;6.120;2023-10-08T21:22:51;17.30;99.90
79049;DHT22;68680;50.764;6.120;2023-10-08T21:25:20;17.30;99.90
79049;DHT22;68680;50.764;6.120;2023-10-08T21:27:47;17.30;99.90
79049;DHT22;68680;50.764;6.120;2023-10-08T21:30:16;17.30;99.90
79049;DHT22;68680;50.764;6.120;2023-10-08T21:32:42;17.30;99.90
79049;DHT22;68680;50.764;6.120;2023-10-08T21:35:10;17.30;99.90
79049;DHT22;68680;50.764;6.120;2023-10-08T21:37:37;17.30;99.90
79049;DHT22;68680;50.764;6.120;2023-10-08T21:40:05;17.30;99.90
79049;DHT22;68680;50.764;6.120;2023-10-08T21:42:33;17.40;99.90
79049;DHT22;68680;50.764;6.120;2023-10-08T21:44:58;17.40;99.90
79049;DHT22;68680;50.764;6.120;2023-10-08T21:47:24;17.40;99.90
79049;DHT22;68680;50.764;6.120;2023-10-08T21:49:50;17.40;99.90
79049;DHT22;68680;50.764;6.120;2023-10-08T21:52:16;17.50;99.90
79049;DHT22;68680;50.764;6.120;2023-10-08T21:54:41;17.50;99.90
79049;DHT22;68680;50.764;6.120;2023-10-08T21:57:07;17.50;99.90
79049;DHT22;68680;50.764;6.120;2023-10-08T21:59:34;17.50;99.90
79049;DHT22;68680;50.764;6.120;2023-10-08T22:02:00;17.50;99.90
79049;DHT22;68680;50.764;6.120;2023-10-08T22:04:26;17.60;99.90
79049;DHT22;68680;50.764;6.120;2023-10-08T22:06:52;17.60;99.90
79049;DHT22;68680;50.764;6.120;2023-10-08T22:09:17;17.50;99.90
79049;DHT22;68680;50.764;6.120;2023-10-08T22:11:43;17.60;99.90
79049;DHT22;68680;50.764;6.120;2023-10-08T22:14:09;17.60;99.60
79049;DHT22;68680;50.764;6.120;2023-10-08T22:16:37;17.60;99.40
79049;DHT22;68680;50.764;6.120;2023-10-08T22:19:03;17.70;99.20
79049;DHT22;68680;50.764;6.120;2023-10-08T22:21:29;17.70;99.10
79049;DHT22;68680;50.764;6.120;2023-10-08T22:23:55;17.70;98.90
79049;DHT22;68680;50.764;6.120;2023-10-08T22:26:20;17.60;98.80
79049;DHT22;68680;50.764;6.120;2023-10-08T22:28:46;17.60;98.80
79049;DHT22;68680;50.764;6.120;2023-10-08T22:31:12;17.60;99.00
79049;DHT22;68680;50.764;6.120;2023-10-08T22:33:41;17.60;98.50
79049;DHT22;68680;50.764;6.120;2023-10-08T22:36:07;17.60;98.90
79049;DHT22;68680;50.764;6.120;2023-10-08T22:38:33;17.60;98.70
79049;DHT22;68680;50.764;6.120;2023-10-08T22:40:59;17.60;98.70
79049;DHT22;68680;50.764;6.120;2023-10-08T22:43:25;17.50;98.90
79049;DHT22;68680;50.764;6.120;2023-10-08T22:45:52;17.50;99.10
79049;DHT22;68680;50.764;6.120;2023-10-08T22:48:18;17.50;98.50
79049;DHT22;68680;50.764;6.120;2023-10-08T22:50:45;17.50;98.60
79049;DHT22;68680;50.764;6.120;2023-10-08T22:53:11;17.50;98.40
79049;DHT22;68680;50.764;6.120;2023-10-08T22:55:37;17.50;98.50
79049;DHT22;68680;50.764;6.120;2023-10-08T22:58:03;17.50;98.20
79049;DHT22;68680;50.764;6.120;2023-10-08T23:00:29;17.60;97.90
79049;DHT22;68680;50.764;6.120;2023-10-08T23:02:55;17.60;98.00
79049;DHT22;68680;50.764;6.120;2023-10-08T23:05:21;17.50;97.90
79049;DHT22;68680;50.764;6.120;2023-10-08T23:07:51;17.50;98.00
79049;DHT22;68680;50.764;6.120;2023-10-08T23:10:17;17.50;98.20
79049;DHT22;68680;50.764;6.120;2023-10-08T23:12:43;17.40;98.10
79049;DHT22;68680;50.764;6.120;2023-10-08T23:15:09;17.40;98.00
79049;DHT22;68680;50.764;6.120;2023-10-08T23:17:35;17.40;98.10
79049;DHT22;68680;50.764;6.120;2023-10-08T23:20:01;17.40;98.00
79049;DHT22;68680;50.764;6.120;2023-10-08T23:22:27;17.40;97.80
79049;DHT22;68680;50.764;6.120;2023-10-08T23:24:54;17.40;97.50
79049;DHT22;68680;50.764;6.120;2023-10-08T23:27:20;17.40;97.50
79049;DHT22;68680;50.764;6.120;2023-10-08T23:29:45;17.40;97.40
79049;DHT22;68680;50.764;6.120;2023-10-08T23:32:13;17.40;97.40
79049;DHT22;68680;50.764;6.120;2023-10-08T23:34:39;17.30;97.60
79049;DHT22;68680;50.764;6.120;2023-10-08T23:37:05;17.30;97.50
79049;DHT22;68680;50.764;6.120;2023-10-08T23:39:31;17.30;97.70
79049;DHT22;68680;50.764;6.120;2023-10-08T23:41:58;17.20;97.90
79049;DHT22;68680;50.764;6.120;2023-10-08T23:44:23;17.20;98.10
79049;DHT22;68680;50.764;6.120;2023-10-08T23:46:49;17.10;98.20
79049;DHT22;68680;50.764;6.120;2023-10-08T23:49:15;17.10;98.20
79049;DHT22;68680;50.764;6.120;2023-10-08T23:51:41;17.00;98.50
79049;DHT22;68680;50.764;6.120;2023-10-08T23:54:08;17.00;98.60
79049;DHT22;68680;50.764;6.120;2023-10-08T23:56:34;17.00;98.80
79049;DHT22;68680;50.764;6.120;2023-10-08T23:59:01;17.00;98.80
